Nailsea, United Kingdom
Current Conditions -  °F | °C
As of 2:20 PM on Sunday 21 Dec 2014 (Local Time) from EGGD Reporting Station
Broken Clouds Broken Clouds  
Wind Chill: 43°   Ceiling: 900
Heat Index: 48°   Visibility: 6mi
Dew Point: 46°   Wind: 13mph
Humidity: 93%   Direction: 240°WSW
Pressure: 30.27"   Gusts: NA
Location:  51.43°N, 2.76°W
Report Text: EGGD 211420Z 24011KT 9999 FEW006 BKN009 09/08 Q1025
Loading
Personal Weather Stations






























Interactive Weather Map New forecast layout! Learn more

10-Day Weather Forecast

Advertisements
Track Severe Weather on mobile